Metar z pełnej godziny Komunikat METAR ze strony awiacja.imgw.pl Metar G00 EPBY METAR EPBY 172100Z 09004KT CAVOK 11/07 Q1020 =